Time;durP1;ratioP1;P1;durP2;ratioP2;P2;SDS_P1;SDS_P2;PMS_P1;PMS_P2;Temp;Humidity;BMP_temperature;BMP_pressure;BME280_temperature;BME280_humidity;BME280_pressure;Samples;Min_cycle;Max_cycle;Signal;HPM_P1;HPM_P2
2022/01/14 00:02:05;;;;;;;5.88;1.52;;;5.30;99.90;;;;;;4977653;28;20397;-66
2022/01/14 00:04:32;;;;;;;6.30;2.83;;;5.40;99.90;;;;;;4981609;28;20465;-64
2022/01/14 00:06:59;;;;;;;6.75;2.65;;;5.40;99.90;;;;;;4984736;28;20102;-70
2022/01/14 00:09:26;;;;;;;7.40;2.17;;;5.40;99.90;;;;;;4982501;28;20145;-65
2022/01/14 00:11:58;;;;;;;10.07;1.88;;;5.40;99.90;;;;;;4988302;28;20046;-64
2022/01/14 00:15:24;;;;;;;8.20;1.95;;;5.40;99.90;;;;;;4981786;28;20046;-63
2022/01/14 00:17:15;;;;;;;6.90;1.85;;;5.40;99.90;;;;;;4971961;28;20058;-64
2022/01/14 00:19:43;;;;;;;8.20;1.20;;;5.40;99.90;;;;;;4986106;28;20062;-63
2022/01/14 00:22:16;;;;;;;6.50;2.17;;;5.40;99.90;;;;;;4986214;28;20082;-68
2022/01/14 00:33:08;;;;;;;4.57;1.52;;;5.40;99.90;;;;;;4968419;28;20049;-63
2022/01/14 00:35:41;;;;;;;4.97;1.50;;;5.40;99.90;;;;;;4976654;28;20050;-66
2022/01/14 00:38:09;;;;;;;12.20;2.13;;;5.40;99.90;;;;;;4976133;28;20141;-64
2022/01/14 00:40:36;;;;;;;17.48;3.55;;;5.40;99.90;;;;;;4987304;28;20074;-64
2022/01/14 00:43:04;;;;;;;11.38;2.78;;;5.40;99.90;;;;;;4986318;28;20054;-66
2022/01/14 00:45:31;;;;;;;14.68;2.42;;;5.40;99.90;;;;;;4984642;28;20130;-68
2022/01/14 00:48:00;;;;;;;6.53;2.05;;;5.40;99.90;;;;;;4983069;28;20138;-73
2022/01/14 00:50:27;;;;;;;8.27;2.47;;;5.40;99.90;;;;;;4988069;28;20041;-64
2022/01/14 00:52:54;;;;;;;11.38;2.20;;;5.40;99.90;;;;;;4985959;28;20128;-66
2022/01/14 00:55:28;;;;;;;6.03;2.13;;;5.40;99.90;;;;;;4986841;28;20046;-64
2022/01/14 01:00:30;;;;;;;6.43;2.05;;;5.40;99.90;;;;;;4989937;28;20061;-65
2022/01/14 01:02:58;;;;;;;12.18;2.60;;;5.40;99.90;;;;;;4984392;28;20382;-67
2022/01/14 01:05:25;;;;;;;10.35;2.30;;;5.40;99.90;;;;;;4989790;28;20122;-67
2022/01/14 01:08:14;;;;;;;7.05;1.70;;;5.40;99.90;;;;;;4985202;28;20184;-65
2022/01/14 01:10:49;;;;;;;9.17;2.12;;;5.40;99.90;;;;;;4734589;28;10000560;-65
2022/01/14 01:13:32;;;;;;;15.50;2.25;;;5.40;99.90;;;;;;1325548;28;10002052;-63
2022/01/14 01:16:09;;;;;;;5.25;2.45;;;5.40;99.90;;;;;;4222238;28;10000829;-71
2022/01/14 01:18:36;;;;;;;7.80;1.50;;;5.40;99.90;;;;;;1714318;28;10002831;-65
2022/01/14 01:21:03;;;;;;;9.35;2.17;;;5.40;99.90;;;;;;4987770;28;20166;-68
2022/01/14 01:23:30;;;;;;;7.68;1.40;;;5.40;99.90;;;;;;4989982;28;20050;-68
2022/01/14 01:26:13;;;;;;;6.47;1.85;;;5.50;99.90;;;;;;4971438;28;20042;-64
2022/01/14 01:28:55;;;;;;;10.77;1.98;;;5.40;99.90;;;;;;4992049;28;20038;-66
2022/01/14 01:31:35;;;;;;;6.15;1.48;;;5.50;99.90;;;;;;4981512;28;20057;-64
2022/01/14 01:34:17;;;;;;;4.45;1.45;;;5.50;99.90;;;;;;4983332;28;20038;-65
2022/01/14 01:36:47;;;;;;;7.22;1.25;;;5.50;99.90;;;;;;4986502;28;20038;-64
2022/01/14 01:39:16;;;;;;;3.92;1.58;;;5.50;99.90;;;;;;4981079;28;20437;-65
2022/01/14 01:41:46;;;;;;;13.13;2.28;;;5.50;99.90;;;;;;4986207;28;20049;-65
2022/01/14 01:44:15;;;;;;;6.60;1.35;;;5.60;99.90;;;;;;4985797;28;20050;-70
2022/01/14 01:46:46;;;;;;;6.65;2.85;;;5.60;99.90;;;;;;4985916;28;20069;-64
2022/01/14 01:49:17;;;;;;;10.70;2.40;;;5.60;99.90;;;;;;4993354;28;20468;-67
2022/01/14 01:51:45;;;;;;;;;;;5.60;99.90;;;;;;4979754;28;20341;-73
2022/01/14 01:54:13;;;;;;;7.10;2.25;;;5.70;99.90;;;;;;4980925;28;20024;-66
2022/01/14 01:56:40;;;;;;;6.55;1.45;;;5.80;99.90;;;;;;4985479;28;20077;-62
2022/01/14 01:59:09;;;;;;;8.85;1.90;;;5.80;99.90;;;;;;4975467;28;20175;-71
2022/01/14 02:01:38;;;;;;;12.40;2.17;;;5.90;99.90;;;;;;4979782;28;20449;-64
2022/01/14 02:04:05;;;;;;;15.60;3.30;;;5.90;99.90;;;;;;4970472;28;20155;-68
2022/01/14 02:06:34;;;;;;;8.23;1.83;;;5.90;99.90;;;;;;4965144;28;20113;-64
2022/01/14 02:09:01;;;;;;;7.30;1.48;;;6.00;99.90;;;;;;4972002;28;20373;-69
2022/01/14 02:11:27;;;;;;;10.70;2.60;;;6.10;99.90;;;;;;4978372;28;20651;-72
2022/01/14 02:13:57;;;;;;;8.27;1.60;;;6.20;99.90;;;;;;4977321;28;20053;-68
2022/01/14 02:19:24;;;;;;;15.32;1.65;;;6.40;99.90;;;;;;4973165;28;20178;-69
2022/01/14 02:27:07;;;;;;;11.13;2.05;;;6.60;99.90;;;;;;4976610;28;20072;-65
2022/01/14 02:29:34;;;;;;;13.00;3.15;;;6.80;99.90;;;;;;4980091;28;20880;-66
2022/01/14 02:32:02;;;;;;;12.07;2.00;;;6.80;99.90;;;;;;4978867;28;20074;-70
2022/01/14 02:34:29;;;;;;;5.00;1.45;;;6.80;99.90;;;;;;4970180;28;20152;-69
2022/01/14 02:36:56;;;;;;;7.45;2.22;;;6.80;99.90;;;;;;4972678;28;20452;-70
2022/01/14 02:39:24;;;;;;;9.82;2.65;;;6.90;99.90;;;;;;4888691;28;21076;-66
2022/01/14 02:41:52;;;;;;;9.52;1.45;;;6.90;99.90;;;;;;961946;28;10002895;-64
2022/01/14 02:44:26;;;;;;;9.93;3.55;;;7.00;99.90;;;;;;4974493;28;20677;-69
2022/01/14 02:46:58;;;;;;;9.88;2.08;;;6.90;99.90;;;;;;4975590;28;20903;-70
2022/01/14 02:49:29;;;;;;;6.93;1.83;;;6.90;99.90;;;;;;4976024;28;20132;-67
2022/01/14 02:51:58;;;;;;;10.15;1.92;;;6.90;99.90;;;;;;4976401;28;20046;-68
2022/01/14 02:54:33;;;;;;;5.20;2.35;;;7.00;99.90;;;;;;4968892;28;20497;-68
2022/01/14 02:57:02;;;;;;;10.52;2.25;;;7.00;99.90;;;;;;4974666;28;20042;-71
2022/01/14 02:59:31;;;;;;;11.75;2.20;;;7.00;99.90;;;;;;4977542;28;20441;-69
2022/01/14 03:02:01;;;;;;;7.85;2.75;;;7.00;99.90;;;;;;4972755;28;20145;-70
2022/01/14 03:04:29;;;;;;;12.63;3.63;;;7.00;99.90;;;;;;4970565;28;20082;-70
2022/01/14 03:06:56;;;;;;;7.22;2.35;;;6.90;99.90;;;;;;4981643;28;20579;-67
2022/01/14 03:09:23;;;;;;;9.73;2.63;;;7.00;99.90;;;;;;4964318;28;21380;-68
2022/01/14 03:11:53;;;;;;;10.23;2.67;;;7.00;99.90;;;;;;4978227;28;20378;-69
2022/01/14 03:14:24;;;;;;;8.32;3.83;;;7.10;99.90;;;;;;4974112;28;20101;-70
2022/01/14 03:16:58;;;;;;;8.15;2.28;;;7.10;99.90;;;;;;4963576;28;20054;-68
2022/01/14 03:19:26;;;;;;;9.90;2.10;;;7.20;99.90;;;;;;4969610;28;20140;-64
2022/01/14 03:22:05;;;;;;;12.60;1.85;;;7.30;99.90;;;;;;4977305;28;20468;-64
2022/01/14 03:27:02;;;;;;;;;;;7.20;99.90;;;;;;4976644;28;20050;-64
2022/01/14 03:29:29;;;;;;;17.23;5.25;;;7.20;99.90;;;;;;4976339;28;20024;-67
2022/01/14 03:31:56;;;;;;;9.70;1.75;;;7.20;99.90;;;;;;4978750;28;20035;-70
2022/01/14 03:34:23;;;;;;;3.63;1.73;;;7.20;99.90;;;;;;4976651;28;20220;-67
2022/01/14 03:36:50;;;;;;;9.82;1.60;;;7.20;99.90;;;;;;4978618;28;20158;-68
2022/01/14 03:39:17;;;;;;;10.75;2.55;;;7.20;99.90;;;;;;4974674;28;20067;-66
2022/01/14 03:41:45;;;;;;;10.57;2.00;;;7.20;99.90;;;;;;4977902;28;20723;-63
2022/01/14 03:44:12;;;;;;;13.23;4.22;;;7.20;99.90;;;;;;4971988;28;20062;-67
2022/01/14 03:46:39;;;;;;;10.10;1.95;;;7.20;99.90;;;;;;4972793;28;20055;-67
2022/01/14 03:49:06;;;;;;;7.45;1.58;;;7.20;99.90;;;;;;4976346;28;20476;-64
2022/01/14 03:51:33;;;;;;;10.10;2.30;;;7.20;99.90;;;;;;4978943;28;20050;-68
2022/01/14 03:54:00;;;;;;;5.35;2.25;;;7.20;99.90;;;;;;4967734;28;20129;-67
2022/01/14 03:56:27;;;;;;;6.68;2.22;;;7.10;99.90;;;;;;4967334;28;20201;-65
2022/01/14 03:58:54;;;;;;;11.32;2.42;;;7.10;99.90;;;;;;4978377;28;20137;-65
2022/01/14 04:01:22;;;;;;;10.75;2.47;;;7.20;99.90;;;;;;4979814;28;20077;-64
2022/01/14 04:03:50;;;;;;;10.02;3.25;;;7.20;99.90;;;;;;4978622;28;20061;-66
2022/01/14 04:06:18;;;;;;;16.00;2.40;;;7.20;99.90;;;;;;4977617;28;20061;-66
2022/01/14 04:08:45;;;;;;;11.02;2.22;;;7.20;99.90;;;;;;4979258;28;20146;-62
2022/01/14 04:11:13;;;;;;;9.70;2.03;;;7.30;99.90;;;;;;4976938;28;20054;-65
2022/01/14 04:13:52;;;;;;;7.32;2.13;;;7.30;99.90;;;;;;4901155;28;20069;-69
2022/01/14 04:16:24;;;;;;;7.15;1.75;;;7.40;99.90;;;;;;1129878;28;10023883;-65
2022/01/14 04:18:52;;;;;;;6.68;2.75;;;7.50;99.90;;;;;;4975294;28;20262;-69
2022/01/14 04:21:19;;;;;;;21.23;4.35;;;7.50;99.90;;;;;;4979077;28;20078;-68
2022/01/14 04:23:46;;;;;;;9.55;2.65;;;7.60;99.90;;;;;;4981022;28;20141;-67
2022/01/14 04:26:14;;;;;;;6.55;2.42;;;7.70;99.90;;;;;;4982523;28;20165;-68
2022/01/14 04:28:41;;;;;;;7.20;1.88;;;7.70;99.90;;;;;;4979391;28;20054;-67
2022/01/14 04:31:09;;;;;;;7.90;1.90;;;7.80;99.90;;;;;;4979416;28;20069;-67
2022/01/14 04:33:37;;;;;;;8.63;2.00;;;7.80;99.90;;;;;;4981188;28;20145;-66
2022/01/14 04:36:05;;;;;;;11.20;2.42;;;7.70;99.90;;;;;;4980601;28;20070;-67
2022/01/14 04:38:33;;;;;;;13.73;3.80;;;6.60;99.90;;;;;;4979754;28;20496;-68
2022/01/14 04:41:00;;;;;;;10.55;2.22;;;5.30;99.90;;;;;;4977896;28;20259;-68
2022/01/14 04:43:29;;;;;;;10.82;2.85;;;4.90;99.90;;;;;;4980617;28;20054;-67
2022/01/14 04:48:35;;;;;;;11.05;1.25;;;4.50;99.90;;;;;;4980629;28;20456;-69
2022/01/14 04:51:05;;;;;;;9.70;1.52;;;4.50;99.90;;;;;;4978437;28;20054;-68
2022/01/14 04:53:33;;;;;;;2.67;1.40;;;4.60;99.90;;;;;;4982182;28;20053;-70
2022/01/14 04:56:00;;;;;;;10.13;1.30;;;4.60;99.90;;;;;;4965940;28;20054;-64
2022/01/14 04:58:28;;;;;;;10.48;1.88;;;4.70;99.90;;;;;;4958758;28;20437;-68
2022/01/14 05:00:55;;;;;;;7.47;1.00;;;4.70;99.90;;;;;;4958330;28;20054;-69
2022/01/14 05:03:23;;;;;;;7.57;0.85;;;4.70;99.90;;;;;;4958017;28;20130;-69
2022/01/14 05:05:53;;;;;;;10.25;1.20;;;4.70;99.90;;;;;;4958026;28;20055;-72
2022/01/14 05:08:25;;;;;;;4.65;1.50;;;4.60;99.90;;;;;;4956694;28;20164;-69
2022/01/14 05:13:24;;;;;;;8.23;1.90;;;4.60;99.90;;;;;;4956562;28;20266;-67
2022/01/14 05:15:53;;;;;;;6.82;1.40;;;4.70;99.90;;;;;;4958515;28;20043;-69
2022/01/14 05:18:22;;;;;;;5.00;0.88;;;4.70;99.90;;;;;;4958835;28;20169;-67
2022/01/14 05:20:50;;;;;;;3.80;1.23;;;4.70;99.90;;;;;;4958572;28;20050;-71
2022/01/14 05:23:17;;;;;;;4.65;1.17;;;4.70;99.90;;;;;;4954867;28;20074;-70
2022/01/14 05:25:44;;;;;;;7.47;1.67;;;4.70;99.90;;;;;;4958841;28;20137;-69
2022/01/14 05:28:10;;;;;;;7.15;0.82;;;4.70;99.90;;;;;;4957920;28;20059;-68
2022/01/14 05:30:38;;;;;;;5.43;1.00;;;4.70;99.90;;;;;;4958306;28;20126;-66
2022/01/14 05:33:04;;;;;;;2.20;1.20;;;4.70;99.90;;;;;;4956651;28;20105;-66
2022/01/14 05:35:32;;;;;;;5.20;1.02;;;4.70;99.90;;;;;;4959176;28;20074;-73
2022/01/14 05:37:58;;;;;;;10.63;1.35;;;4.70;99.90;;;;;;4957685;28;20880;-71
2022/01/14 05:40:27;;;;;;;4.43;1.20;;;4.60;99.90;;;;;;4959212;28;20568;-65
2022/01/14 05:42:55;;;;;;;5.05;1.00;;;4.70;99.90;;;;;;4957693;28;20210;-72
2022/01/14 05:45:22;;;;;;;8.65;0.77;;;4.70;99.90;;;;;;4956578;28;20129;-68
2022/01/14 05:47:49;;;;;;;4.70;1.02;;;4.60;99.90;;;;;;4958235;28;20042;-69
2022/01/14 05:50:19;;;;;;;5.13;0.75;;;4.70;99.90;;;;;;4952750;28;20419;-70
2022/01/14 05:52:46;;;;;;;4.63;1.40;;;4.70;99.90;;;;;;4951292;28;20091;-65
2022/01/14 05:55:16;;;;;;;5.82;0.50;;;4.70;99.90;;;;;;4953752;28;20086;-70
2022/01/14 05:57:43;;;;;;;5.30;1.48;;;4.70;99.90;;;;;;4961834;28;20087;-66
2022/01/14 06:00:13;;;;;;;4.10;0.50;;;4.60;99.90;;;;;;4962793;28;20134;-67
2022/01/14 06:02:48;;;;;;;3.78;1.13;;;4.60;99.90;;;;;;4963973;28;20145;-66
2022/01/14 06:05:16;;;;;;;4.78;0.57;;;4.60;99.90;;;;;;4963779;28;20059;-69
2022/01/14 06:07:43;;;;;;;1.27;0.57;;;4.60;99.90;;;;;;4963840;28;20812;-65
2022/01/14 06:10:10;;;;;;;11.13;0.82;;;4.60;99.90;;;;;;4965343;28;20153;-64
2022/01/14 06:12:38;;;;;;;2.67;0.90;;;4.60;99.90;;;;;;4889346;28;20058;-65
2022/01/14 06:15:14;;;;;;;2.45;0.82;;;4.50;99.90;;;;;;611172;28;10024516;-65
2022/01/14 06:17:41;;;;;;;3.88;0.68;;;4.60;99.90;;;;;;4962532;28;20660;-69
2022/01/14 06:20:09;;;;;;;3.10;0.77;;;4.60;99.90;;;;;;4965806;28;20137;-65
2022/01/14 06:22:36;;;;;;;2.03;1.17;;;4.60;99.90;;;;;;4964419;28;21415;-66
2022/01/14 06:25:04;;;;;;;2.63;0.68;;;4.60;99.90;;;;;;4963889;28;20195;-68
2022/01/14 06:27:32;;;;;;;5.00;0.75;;;4.50;99.90;;;;;;4965246;28;20518;-65
2022/01/14 06:30:05;;;;;;;5.32;1.50;;;4.50;99.90;;;;;;4964765;28;20800;-69
2022/01/14 06:32:41;;;;;;;4.30;2.28;;;4.40;99.90;;;;;;4965138;28;20054;-70
2022/01/14 06:35:14;;;;;;;5.80;0.77;;;4.40;99.90;;;;;;4961662;28;20180;-69
2022/01/14 06:37:41;;;;;;;2.58;0.63;;;4.40;99.90;;;;;;4963693;28;20059;-69
2022/01/14 06:40:09;;;;;;;9.02;2.22;;;4.40;99.90;;;;;;4962880;28;20449;-69
2022/01/14 06:42:43;;;;;;;6.38;1.27;;;4.50;99.90;;;;;;4965858;28;20046;-66
2022/01/14 06:45:11;;;;;;;2.63;0.70;;;4.50;99.90;;;;;;4962576;28;20449;-72
2022/01/14 06:47:38;;;;;;;6.80;0.90;;;4.50;99.90;;;;;;4964455;28;20054;-69
2022/01/14 06:50:05;;;;;;;2.80;0.70;;;4.60;99.90;;;;;;4962045;28;20050;-66
2022/01/14 06:52:32;;;;;;;2.05;0.70;;;4.70;99.90;;;;;;4962505;28;20125;-72
2022/01/14 06:54:59;;;;;;;6.97;0.70;;;4.70;99.90;;;;;;4962323;28;20062;-68
2022/01/14 06:57:26;;;;;;;6.00;1.00;;;4.90;99.90;;;;;;4967742;28;20121;-71
2022/01/14 06:59:53;;;;;;;4.75;0.85;;;4.90;99.90;;;;;;4967080;28;20057;-67
2022/01/14 07:02:20;;;;;;;5.13;0.88;;;4.90;99.90;;;;;;4967505;28;20113;-67
2022/01/14 07:04:47;;;;;;;2.63;0.95;;;5.00;99.90;;;;;;4969964;28;20156;-67
2022/01/14 07:07:14;;;;;;;2.13;0.47;;;5.00;99.90;;;;;;4972026;28;20157;-71
2022/01/14 07:09:56;;;;;;;3.58;0.40;;;5.00;99.90;;;;;;4970961;28;20053;-67
2022/01/14 07:12:27;;;;;;;3.78;0.70;;;5.00;99.90;;;;;;4977078;28;20050;-66
2022/01/14 07:14:54;;;;;;;6.40;1.42;;;5.00;99.90;;;;;;4972367;28;20050;-71
2022/01/14 07:17:21;;;;;;;1.90;0.60;;;5.00;99.90;;;;;;4973155;28;20057;-72
2022/01/14 07:19:50;;;;;;;3.88;0.70;;;5.00;99.90;;;;;;4972019;28;20608;-69
2022/01/14 07:22:18;;;;;;;3.92;0.60;;;5.00;99.90;;;;;;4974920;28;20087;-66
2022/01/14 07:24:45;;;;;;;3.33;1.15;;;5.00;99.90;;;;;;4973621;28;20764;-67
2022/01/14 07:27:14;;;;;;;2.53;0.60;;;5.00;99.90;;;;;;4973714;28;20059;-64
2022/01/14 07:29:41;;;;;;;3.90;0.80;;;5.00;99.90;;;;;;4972495;28;20128;-64
2022/01/14 07:32:08;;;;;;;3.17;0.63;;;5.00;99.90;;;;;;4974204;28;20065;-68
2022/01/14 07:34:35;;;;;;;3.72;1.13;;;5.00;99.90;;;;;;4972804;28;20061;-68
2022/01/14 07:37:03;;;;;;;1.77;1.00;;;5.00;99.90;;;;;;4972105;28;20152;-68
2022/01/14 07:39:30;;;;;;;2.50;0.82;;;5.00;99.90;;;;;;4974147;28;20468;-70
2022/01/14 07:41:57;;;;;;;0.93;0.50;;;5.00;99.90;;;;;;4972731;28;20050;-71
2022/01/14 07:44:23;;;;;;;6.22;0.93;;;5.00;99.90;;;;;;4975482;28;20081;-65
2022/01/14 07:46:51;;;;;;;1.55;0.40;;;5.00;99.90;;;;;;4973866;28;20700;-64
2022/01/14 07:49:18;;;;;;;2.75;1.05;;;5.00;99.90;;;;;;4971613;28;20050;-68
2022/01/14 07:51:45;;;;;;;2.90;0.68;;;5.00;99.90;;;;;;4967830;28;20165;-66
2022/01/14 07:54:12;;;;;;;1.75;0.63;;;5.00;99.90;;;;;;4974104;28;20106;-64
2022/01/14 07:56:45;;;;;;;2.13;0.75;;;5.00;99.90;;;;;;4970528;28;20046;-69
2022/01/14 07:59:17;;;;;;;2.42;0.57;;;5.00;99.90;;;;;;4973654;28;20068;-64
2022/01/14 08:01:45;;;;;;;3.97;1.27;;;5.00;99.90;;;;;;4971254;28;20129;-67
2022/01/14 08:04:13;;;;;;;4.47;1.02;;;5.10;99.90;;;;;;4972950;28;20058;-68
2022/01/14 08:06:46;;;;;;;4.03;1.42;;;5.00;99.90;;;;;;4973980;28;20110;-66
2022/01/14 08:09:14;;;;;;;2.90;1.33;;;5.00;99.90;;;;;;4970132;28;20499;-68
2022/01/14 08:11:42;;;;;;;2.20;0.80;;;5.00;99.90;;;;;;4944786;28;20198;-67
2022/01/14 08:14:25;;;;;;;2.54;0.79;;;5.00;99.90;;;;;;2505579;28;10004829;-64
2022/01/14 08:16:52;;;;;;;2.60;0.93;;;5.00;99.90;;;;;;3250093;28;10001219;-74
2022/01/14 08:19:19;;;;;;;3.97;0.98;;;5.00;99.90;;;;;;4971683;28;20451;-70
2022/01/14 08:21:46;;;;;;;5.85;1.67;;;4.90;99.90;;;;;;4975320;28;20536;-66
2022/01/14 08:24:13;;;;;;;6.07;1.17;;;5.00;99.90;;;;;;4974718;28;20077;-67
2022/01/14 08:26:40;;;;;;;2.60;0.68;;;4.90;99.90;;;;;;4968351;28;20053;-72
2022/01/14 08:29:07;;;;;;;2.15;0.73;;;4.90;99.90;;;;;;4970349;28;20202;-66
2022/01/14 08:31:34;;;;;;;5.90;0.70;;;4.90;99.90;;;;;;4973187;28;20054;-71
2022/01/14 08:34:01;;;;;;;3.67;0.63;;;4.90;99.90;;;;;;4980200;28;20060;-72
2022/01/14 08:36:30;;;;;;;1.83;0.68;;;4.90;99.90;;;;;;4971736;28;20107;-71
2022/01/14 08:38:59;;;;;;;5.72;1.67;;;4.90;99.90;;;;;;4971750;28;20141;-69
2022/01/14 08:41:29;;;;;;;3.42;0.98;;;4.90;99.90;;;;;;4967036;28;20057;-71
2022/01/14 08:43:59;;;;;;;;;;;4.80;99.90;;;;;;4979795;28;20042;-66
2022/01/14 08:46:46;;;;;;;3.72;1.17;;;4.90;99.90;;;;;;4973204;28;19930;-65
2022/01/14 08:49:13;;;;;;;5.10;2.05;;;4.90;99.90;;;;;;4978292;28;20126;-65
2022/01/14 08:51:40;;;;;;;3.95;1.27;;;4.90;99.90;;;;;;4967236;28;20513;-65
2022/01/14 08:54:08;;;;;;;4.07;0.70;;;4.90;99.90;;;;;;4966485;28;20054;-67
2022/01/14 08:56:36;;;;;;;2.97;0.60;;;5.00;99.90;;;;;;4980138;28;20055;-65
2022/01/14 08:59:04;;;;;;;5.63;1.00;;;5.00;99.90;;;;;;4974609;28;20054;-67
2022/01/14 09:01:31;;;;;;;1.95;0.80;;;5.00;99.90;;;;;;4976696;28;20065;-70
2022/01/14 09:03:58;;;;;;;2.50;0.60;;;5.00;99.90;;;;;;4975617;28;20042;-67
2022/01/14 09:06:25;;;;;;;4.65;0.57;;;4.90;99.90;;;;;;4981873;28;20054;-66
2022/01/14 09:08:52;;;;;;;3.25;1.23;;;4.90;99.90;;;;;;4976683;28;20067;-66
2022/01/14 09:11:20;;;;;;;6.53;1.45;;;5.00;99.90;;;;;;4979393;28;20057;-74
2022/01/14 09:13:47;;;;;;;0.85;0.30;;;5.00;99.90;;;;;;4961716;28;20074;-64
2022/01/14 09:16:16;;;;;;;6.28;1.25;;;5.00;99.90;;;;;;4968838;28;20066;-67
2022/01/14 09:18:43;;;;;;;2.88;1.05;;;5.00;99.90;;;;;;4962528;28;20093;-64
2022/01/14 09:21:10;;;;;;;3.72;1.02;;;5.00;99.90;;;;;;4973840;28;20050;-70
2022/01/14 09:23:37;;;;;;;2.28;0.60;;;5.00;99.90;;;;;;4986016;28;20058;-74
2022/01/14 09:26:04;;;;;;;3.15;1.10;;;4.90;99.90;;;;;;4989821;28;20097;-67
2022/01/14 09:28:33;;;;;;;6.85;1.00;;;4.90;99.90;;;;;;4987291;28;20046;-70
2022/01/14 09:31:00;;;;;;;3.17;1.15;;;4.90;99.90;;;;;;4977728;28;20165;-73
2022/01/14 09:33:27;;;;;;;6.13;1.50;;;4.90;99.90;;;;;;4979073;28;20054;-67
2022/01/14 09:35:54;;;;;;;10.00;2.08;;;4.90;99.90;;;;;;4982391;28;20438;-68
2022/01/14 09:38:22;;;;;;;2.13;1.10;;;4.90;99.90;;;;;;4970939;28;20133;-66
2022/01/14 09:40:50;;;;;;;6.38;0.90;;;4.90;99.90;;;;;;4976728;28;20065;-66
2022/01/14 09:43:17;;;;;;;5.15;1.00;;;4.90;99.90;;;;;;4981105;28;20145;-72
2022/01/14 09:46:00;;;;;;;4.38;0.95;;;4.80;99.90;;;;;;4978342;28;20442;-67
2022/01/14 09:48:27;;;;;;;2.60;1.00;;;4.90;99.90;;;;;;4978222;28;20349;-64
2022/01/14 09:50:56;;;;;;;5.43;1.13;;;4.90;99.90;;;;;;4974059;28;20093;-64
2022/01/14 09:53:25;;;;;;;2.72;0.98;;;4.90;99.90;;;;;;4978745;28;20129;-69
2022/01/14 09:55:52;;;;;;;9.65;1.90;;;4.90;99.90;;;;;;4974364;28;20189;-64
2022/01/14 09:58:22;;;;;;;3.75;0.75;;;4.90;99.90;;;;;;4979942;28;20499;-68
2022/01/14 10:00:49;;;;;;;18.17;2.78;;;4.90;99.90;;;;;;4977150;28;20488;-68
2022/01/14 10:03:21;;;;;;;7.32;1.20;;;4.90;99.90;;;;;;4975687;28;20053;-69
2022/01/14 10:05:53;;;;;;;15.82;1.23;;;4.90;99.90;;;;;;4972593;28;20065;-67
2022/01/14 10:08:24;;;;;;;6.13;1.50;;;4.90;99.90;;;;;;4985211;28;20137;-69
2022/01/14 10:10:56;;;;;;;5.25;1.50;;;4.80;99.90;;;;;;4971314;28;20057;-65
2022/01/14 10:13:43;;;;;;;3.60;1.51;;;4.80;99.90;;;;;;4034860;28;10001263;-71
2022/01/14 10:16:10;;;;;;;5.57;1.10;;;4.90;99.90;;;;;;1713203;28;10002006;-68
2022/01/14 10:18:39;;;;;;;11.55;1.63;;;4.80;99.90;;;;;;4984109;28;20132;-64
2022/01/14 10:21:07;;;;;;;4.47;1.45;;;4.80;99.90;;;;;;4974987;28;20097;-64
2022/01/14 10:23:45;;;;;;;8.10;1.73;;;4.80;99.90;;;;;;4967429;28;20186;-74
2022/01/14 10:26:13;;;;;;;5.20;1.85;;;4.90;99.90;;;;;;4983911;28;20053;-66
2022/01/14 10:28:44;;;;;;;6.05;1.92;;;4.80;99.90;;;;;;4969431;28;20078;-64
2022/01/14 10:31:12;;;;;;;11.43;1.63;;;4.80;99.90;;;;;;4968432;28;20042;-67
2022/01/14 10:33:39;;;;;;;5.25;1.00;;;4.90;99.90;;;;;;4979178;28;20775;-68
2022/01/14 10:36:06;;;;;;;7.43;1.17;;;4.90;99.90;;;;;;4976716;28;20429;-70
2022/01/14 10:38:39;;;;;;;7.47;1.02;;;4.90;99.90;;;;;;4971398;28;20050;-71
2022/01/14 10:41:09;;;;;;;6.20;1.10;;;4.80;99.90;;;;;;4972858;28;20168;-66
2022/01/14 10:43:42;;;;;;;10.45;3.00;;;4.90;99.90;;;;;;4973718;28;20495;-67
2022/01/14 10:46:10;;;;;;;7.07;1.35;;;4.90;99.90;;;;;;4970999;28;20050;-66
2022/01/14 10:48:46;;;;;;;5.68;1.30;;;4.80;99.90;;;;;;4971973;28;20054;-69
2022/01/14 10:51:17;;;;;;;16.10;2.33;;;4.90;99.90;;;;;;4967164;28;20042;-67
2022/01/14 10:53:50;;;;;;;3.42;1.05;;;4.90;99.90;;;;;;4971889;28;20042;-66
2022/01/14 10:56:22;;;;;;;6.45;1.67;;;4.90;99.90;;;;;;4970390;28;20120;-70
2022/01/14 10:58:56;;;;;;;15.63;2.00;;;4.90;99.90;;;;;;4981443;28;20149;-68
2022/01/14 11:01:24;;;;;;;7.03;1.10;;;4.90;99.90;;;;;;4966346;28;20373;-73
2022/01/14 11:04:10;;;;;;;7.13;1.73;;;4.90;99.90;;;;;;4973420;28;20313;-66
2022/01/14 11:06:42;;;;;;;7.00;1.45;;;4.80;99.90;;;;;;4969857;28;20054;-67
2022/01/14 11:09:17;;;;;;;3.90;0.85;;;4.80;99.90;;;;;;4979621;28;20054;-70
2022/01/14 11:11:46;;;;;;;3.88;1.27;;;4.80;99.90;;;;;;4973897;28;20064;-66
2022/01/14 11:14:14;;;;;;;2.50;0.88;;;4.80;99.90;;;;;;4972171;28;20280;-70
2022/01/14 11:16:41;;;;;;;11.30;1.17;;;4.80;99.90;;;;;;4979946;28;20381;-66
2022/01/14 11:19:09;;;;;;;3.42;1.15;;;4.80;99.90;;;;;;4966279;28;20146;-67
2022/01/14 11:24:30;;;;;;;10.48;2.53;;;4.80;99.90;;;;;;4974138;28;20058;-65
2022/01/14 11:27:06;;;;;;;6.40;1.98;;;4.80;99.90;;;;;;4977481;28;20138;-67
2022/01/14 11:29:40;;;;;;;3.35;1.10;;;4.80;99.90;;;;;;4973453;28;20194;-65
2022/01/14 11:32:08;;;;;;;2.50;0.95;;;4.80;99.90;;;;;;4972526;28;20097;-65
2022/01/14 11:34:42;;;;;;;12.27;2.58;;;4.80;99.90;;;;;;4972684;28;20388;-69
2022/01/14 11:37:11;;;;;;;5.35;2.00;;;4.80;99.90;;;;;;4974952;28;20400;-64
2022/01/14 11:39:52;;;;;;;10.45;2.05;;;4.80;99.90;;;;;;4980158;28;20050;-64
2022/01/14 11:42:19;;;;;;;5.97;0.93;;;4.80;99.90;;;;;;4974241;28;20048;-71
2022/01/14 11:44:57;;;;;;;4.35;1.33;;;4.80;99.90;;;;;;4973614;28;20145;-68
2022/01/14 11:47:24;;;;;;;8.75;1.23;;;4.80;99.90;;;;;;4974452;28;20064;-65
2022/01/14 11:49:52;;;;;;;11.55;1.85;;;4.80;99.90;;;;;;4977664;28;20057;-84
2022/01/14 11:52:40;;;;;;;8.88;1.95;;;4.80;99.90;;;;;;4969733;28;20058;-71
2022/01/14 11:55:22;;;;;;;12.88;2.13;;;4.70;99.90;;;;;;4973431;28;20863;-69
2022/01/14 11:57:51;;;;;;;10.13;1.40;;;4.70;99.90;;;;;;4978922;28;20404;-71
2022/01/14 12:00:27;;;;;;;10.90;1.58;;;4.70;99.90;;;;;;4972848;28;20476;-72
2022/01/14 12:02:56;;;;;;;2.53;1.90;;;4.70;99.90;;;;;;4977205;28;20175;-65
2022/01/14 12:05:28;;;;;;;9.73;3.08;;;4.70;99.90;;;;;;4972691;28;20046;-67
2022/01/14 12:10:46;;;;;;;10.18;2.25;;;4.70;99.90;;;;;;4978830;28;20156;-70
2022/01/14 12:16:04;;;;;;;8.75;1.10;;;4.70;99.90;;;;;;3428421;28;10002032;-68
2022/01/14 12:18:58;;;;;;;2.22;1.27;;;4.70;99.90;;;;;;4981398;28;20172;-67
2022/01/14 12:21:40;;;;;;;13.80;2.40;;;4.70;99.90;;;;;;4976899;28;20064;-72
2022/01/14 12:24:19;;;;;;;14.13;1.67;;;4.70;99.90;;;;;;4974934;28;20050;-62
2022/01/14 12:26:52;;;;;;;8.82;2.28;;;4.70;99.90;;;;;;4978639;28;20093;-68
2022/01/14 12:29:30;;;;;;;8.13;1.80;;;4.70;99.90;;;;;;4972707;28;20512;-67
2022/01/14 12:32:03;;;;;;;9.30;1.58;;;4.70;99.90;;;;;;4975646;28;20082;-69
2022/01/14 12:34:31;;;;;;;5.40;2.25;;;4.70;99.90;;;;;;4982678;28;20077;-67
2022/01/14 12:36:58;;;;;;;10.07;1.65;;;4.70;99.90;;;;;;4978917;28;20058;-69
2022/01/14 12:39:26;;;;;;;7.47;1.67;;;4.70;99.90;;;;;;4978945;28;20667;-65
2022/01/14 12:41:54;;;;;;;7.78;2.47;;;4.70;99.90;;;;;;4975346;28;20092;-65
2022/01/14 12:44:22;;;;;;;15.73;3.83;;;4.70;99.90;;;;;;4975225;28;20330;-63
2022/01/14 12:47:00;;;;;;;4.70;1.45;;;4.70;99.90;;;;;;4981710;28;20177;-67
2022/01/14 12:49:35;;;;;;;5.32;1.35;;;4.70;99.90;;;;;;4978271;28;20386;-64
2022/01/14 12:52:12;;;;;;;6.25;2.00;;;4.60;99.90;;;;;;4981099;28;20053;-66
2022/01/14 12:54:41;;;;;;;6.30;1.45;;;4.70;99.90;;;;;;4976170;28;20054;-64
2022/01/14 12:57:08;;;;;;;8.83;1.50;;;4.60;99.90;;;;;;4980558;28;20058;-63
2022/01/14 12:59:39;;;;;;;8.05;1.77;;;4.60;99.90;;;;;;4983917;28;20042;-66
2022/01/14 13:02:06;;;;;;;4.72;1.27;;;4.60;99.90;;;;;;4982835;28;20099;-64
2022/01/14 13:04:33;;;;;;;5.85;3.17;;;4.60;99.90;;;;;;4979906;28;20188;-71
2022/01/14 13:07:03;;;;;;;6.70;1.08;;;4.60;99.90;;;;;;4982654;28;20108;-67
2022/01/14 13:09:40;;;;;;;6.22;1.65;;;4.50;99.90;;;;;;4966439;28;20065;-63
2022/01/14 13:12:16;;;;;;;2.40;0.80;;;4.50;99.90;;;;;;4983564;28;20097;-65
2022/01/14 13:14:48;;;;;;;8.43;2.40;;;4.50;99.90;;;;;;4963683;28;20047;-68
2022/01/14 13:17:20;;;;;;;7.35;1.67;;;4.50;99.90;;;;;;4961473;28;20083;-70
2022/01/14 13:19:47;;;;;;;8.10;1.58;;;4.50;99.90;;;;;;4980036;28;20042;-66
2022/01/14 13:22:16;;;;;;;10.38;1.20;;;4.50;99.90;;;;;;4978211;28;20212;-68
2022/01/14 13:24:45;;;;;;;3.22;0.70;;;4.50;99.90;;;;;;4980423;28;20058;-65
2022/01/14 13:27:24;;;;;;;6.50;1.35;;;4.40;99.90;;;;;;4980963;28;20061;-68
2022/01/14 13:29:58;;;;;;;8.40;1.58;;;4.40;99.90;;;;;;4977827;28;20186;-66
2022/01/14 13:32:44;;;;;;;9.30;1.02;;;4.40;99.90;;;;;;4972397;28;20050;-69
2022/01/14 13:35:14;;;;;;;7.53;1.50;;;4.40;99.90;;;;;;4975284;28;20054;-67
2022/01/14 13:37:44;;;;;;;9.38;2.88;;;4.40;99.90;;;;;;4977935;28;20050;-61
2022/01/14 13:40:16;;;;;;;5.82;1.10;;;4.40;99.90;;;;;;4977172;28;20050;-69
2022/01/14 13:42:47;;;;;;;4.53;2.05;;;4.40;99.90;;;;;;4981266;28;20145;-64
2022/01/14 13:45:19;;;;;;;10.48;1.60;;;4.40;99.90;;;;;;4958619;28;20117;-67